createdAt,value
2018-09-08T00:03:01.342Z,101772.66
2018-09-08T00:05:30.337Z,101773.45
2018-09-08T00:07:58.778Z,101774.87
2018-09-08T00:10:27.195Z,101767.85
2018-09-08T00:12:55.941Z,101760.03
2018-09-08T00:15:29.911Z,101764.36
2018-09-08T00:18:03.768Z,101756.88
2018-09-08T00:20:37.717Z,101760.45
2018-09-08T00:23:11.477Z,101757.34
2018-09-08T00:25:45.640Z,101762.63
2018-09-08T00:28:32.336Z,101757.67
2018-09-08T00:31:01.035Z,101758.56
2018-09-08T00:33:29.638Z,101766.86
2018-09-08T00:35:58.277Z,101760.16
2018-09-08T00:38:26.899Z,101766.38
2018-09-08T00:40:55.378Z,101768.59
2018-09-08T00:43:23.870Z,101771.76
2018-09-08T00:45:52.633Z,101766.33
2018-09-08T00:48:21.182Z,101773.40
2018-09-08T00:50:49.696Z,101771.23
2018-09-08T00:53:18.193Z,101779.25
2018-09-08T00:55:46.685Z,101786.63
2018-09-08T00:58:15.177Z,101788.70
2018-09-08T01:00:43.601Z,101788.70
2018-09-08T01:03:12.138Z,101791.28
2018-09-08T01:05:40.566Z,101794.81
2018-09-08T01:08:09.448Z,101789.81
2018-09-08T01:10:37.982Z,101803.42
2018-09-08T01:13:06.570Z,101800.89
2018-09-08T01:15:35.077Z,101801.41
2018-09-08T01:18:03.760Z,101811.59
2018-09-08T01:20:32.366Z,101795.77
2018-09-08T01:23:00.908Z,101797.56
2018-09-08T01:25:29.480Z,101803.16
2018-09-08T01:27:57.974Z,101804.69
2018-09-08T01:30:26.462Z,101807.70
2018-09-08T01:33:23.769Z,101802.80
2018-09-08T01:35:52.506Z,101806.61
2018-09-08T01:38:21.197Z,101810.94
2018-09-08T01:40:49.776Z,101816.52
2018-09-08T01:43:18.557Z,101817.37
2018-09-08T01:45:47.027Z,101822.97
2018-09-08T01:48:15.616Z,101818.55
2018-09-08T01:50:44.040Z,101816.17
2018-09-08T01:53:12.718Z,101824.39
2018-09-08T01:55:41.287Z,101813.69
2018-09-08T01:58:09.873Z,101817.95
2018-09-08T02:00:38.293Z,101816.90
2018-09-08T02:03:07.071Z,101817.63
2018-09-08T02:05:35.620Z,101816.15
2018-09-08T02:08:04.091Z,101818.98
2018-09-08T02:10:32.550Z,101822.94
2018-09-08T02:13:01.158Z,101820.72
2018-09-08T02:15:29.945Z,101815.28
2018-09-08T02:17:58.382Z,101822.23
2018-09-08T02:20:26.904Z,101827.14
2018-09-08T02:22:55.373Z,101828.71
2018-09-08T02:25:23.910Z,101825.23
2018-09-08T02:27:52.458Z,101819.85
2018-09-08T02:30:20.893Z,101823.80
2018-09-08T02:32:49.444Z,101830.81
2018-09-08T02:35:17.872Z,101829.44
2018-09-08T02:37:46.397Z,101828.84
2018-09-08T02:40:14.873Z,101824.73
2018-09-08T02:42:43.499Z,101829.63
2018-09-08T02:45:11.951Z,101825.14
2018-09-08T02:47:40.390Z,101824.30
2018-09-08T02:50:20.026Z,101830.41
2018-09-08T02:52:47.265Z,101828.20
2018-09-08T02:55:14.599Z,101831.20
2018-09-08T02:57:41.973Z,101827.61
2018-09-08T03:00:09.313Z,101835.87
2018-09-08T03:02:36.587Z,101838.50
2018-09-08T03:05:21.872Z,101839.87
2018-09-08T03:07:49.161Z,101845.14
2018-09-08T03:10:16.823Z,101848.67
2018-09-08T03:12:44.148Z,101854.95
2018-09-08T03:15:11.474Z,101853.05
2018-09-08T03:17:38.890Z,101859.88
2018-09-08T03:20:06.157Z,101853.66
2018-09-08T03:22:33.537Z,101867.77
2018-09-08T03:25:00.949Z,101864.36
2018-09-08T03:27:28.208Z,101859.03
2018-09-08T03:29:55.460Z,101862.09
2018-09-08T03:32:22.711Z,101856.46
2018-09-08T03:34:49.971Z,101863.05
2018-09-08T03:37:17.248Z,101862.92
2018-09-08T03:39:44.504Z,101868.19
2018-09-08T03:42:11.788Z,101869.45
2018-09-08T03:44:39.132Z,101868.14
2018-09-08T03:47:07.291Z,101858.50
2018-09-08T03:49:39.453Z,101855.45
2018-09-08T03:52:06.690Z,101851.61
2018-09-08T03:54:33.961Z,101849.94
2018-09-08T03:57:01.244Z,101851.84
2018-09-08T03:59:28.583Z,101852.91
2018-09-08T04:01:55.924Z,101852.25
2018-09-08T04:04:24.467Z,101853.48
2018-09-08T04:06:52.958Z,101855.98
2018-09-08T04:09:21.441Z,101855.84
2018-09-08T04:11:49.927Z,101850.31
2018-09-08T04:14:18.369Z,101851.80
2018-09-08T04:16:46.901Z,101852.75
2018-09-08T04:19:15.341Z,101852.38
2018-09-08T04:21:43.781Z,101853.28
2018-09-08T04:24:12.320Z,101855.92
2018-09-08T04:26:40.898Z,101853.76
2018-09-08T04:29:09.394Z,101861.77
2018-09-08T04:31:37.872Z,101858.19
2018-09-08T04:34:06.448Z,101858.55
2018-09-08T04:36:34.977Z,101864.50
2018-09-08T04:39:03.674Z,101876.50
2018-09-08T04:41:32.204Z,101872.38
2018-09-08T04:44:00.692Z,101871.80
2018-09-08T04:46:29.186Z,101879.22
2018-09-08T04:48:57.652Z,101879.41
2018-09-08T04:51:39.265Z,101881.09
2018-09-08T04:54:07.818Z,101880.80
2018-09-08T04:56:36.245Z,101879.91
2018-09-08T04:59:05.040Z,101884.64
2018-09-08T05:01:33.551Z,101892.78
2018-09-08T05:04:02.054Z,101890.81
2018-09-08T05:06:30.560Z,101894.64
2018-09-08T05:08:59.145Z,101899.73
2018-09-08T05:11:27.611Z,101897.94
2018-09-08T05:14:01.629Z,101899.38
2018-09-08T05:16:30.202Z,101906.86
2018-09-08T05:18:58.666Z,101900.22
2018-09-08T05:21:27.260Z,101905.06
2018-09-08T05:23:55.758Z,101896.14
2018-09-08T05:26:24.244Z,101899.25
2018-09-08T05:29:20.077Z,101892.14
2018-09-08T05:31:48.635Z,101896.09
2018-09-08T05:34:17.438Z,101897.82
2018-09-08T05:36:45.914Z,101903.63
2018-09-08T05:39:14.412Z,101906.80
2018-09-08T05:41:42.982Z,101905.60
2018-09-08T05:44:11.469Z,101907.39
2018-09-08T05:46:39.937Z,101910.56
2018-09-08T05:49:08.437Z,101907.63
2018-09-08T05:51:36.901Z,101915.65
2018-09-08T05:54:05.492Z,101909.60
2018-09-08T05:56:33.920Z,101919.48
2018-09-08T05:59:02.375Z,101920.08
2018-09-08T06:01:30.952Z,101921.98
2018-09-08T06:03:59.527Z,101920.42
2018-09-08T06:06:28.007Z,101924.13
2018-09-08T06:08:56.486Z,101919.92
2018-09-08T06:11:24.966Z,101927.59
2018-09-08T06:13:53.444Z,101927.39
2018-09-08T06:16:22.490Z,101924.08
2018-09-08T06:18:50.964Z,101924.78
2018-09-08T06:21:19.508Z,101927.73
2018-09-08T06:23:47.984Z,101924.03
2018-09-08T06:26:16.440Z,101920.77
2018-09-08T06:28:44.999Z,101925.00
2018-09-08T06:31:13.548Z,101923.05
2018-09-08T06:33:42.186Z,101919.78
2018-09-08T06:36:10.844Z,101916.14
2018-09-08T06:38:39.380Z,101920.84
2018-09-08T06:41:07.976Z,101924.16
2018-09-08T06:43:36.454Z,101919.98
2018-09-08T06:46:04.969Z,101923.36
2018-09-08T06:48:33.671Z,101926.20
2018-09-08T06:51:02.222Z,101930.25
2018-09-08T06:53:30.729Z,101929.19
2018-09-08T06:55:59.480Z,101918.77
2018-09-08T06:58:27.996Z,101922.98
2018-09-08T07:00:56.602Z,101915.30
2018-09-08T07:03:25.240Z,101915.54
2018-09-08T07:05:53.859Z,101915.35
2018-09-08T07:08:22.409Z,101916.56
2018-09-08T07:10:50.889Z,101919.47
2018-09-08T07:13:19.480Z,101901.63
2018-09-08T07:15:48.082Z,101911.44
2018-09-08T07:18:18.990Z,101912.94
2018-09-08T07:20:47.615Z,101913.17
2018-09-08T07:23:21.963Z,101918.80
2018-09-08T07:25:50.514Z,101925.39
2018-09-08T07:28:19.064Z,101914.72
2018-09-08T07:30:47.550Z,101919.02
2018-09-08T07:33:16.024Z,101917.98
2018-09-08T07:35:44.554Z,101922.16
2018-09-08T07:38:13.111Z,101923.33
2018-09-08T07:40:50.194Z,101927.73
2018-09-08T07:43:18.772Z,101927.50
2018-09-08T07:45:47.458Z,101937.00
2018-09-08T07:48:15.934Z,101940.38
2018-09-08T07:50:44.423Z,101940.09
2018-09-08T07:53:12.937Z,101937.02
2018-09-08T07:55:41.488Z,101941.06
2018-09-08T07:58:09.976Z,101940.31
2018-09-08T08:00:38.541Z,101945.19
2018-09-08T08:03:07.131Z,101952.78
2018-09-08T08:05:35.596Z,101951.20
2018-09-08T08:08:04.240Z,101944.90
2018-09-08T08:11:18.114Z,101947.83
2018-09-08T08:13:46.630Z,101951.02
2018-09-08T08:16:15.211Z,101950.51
2018-09-08T08:18:43.671Z,101949.99
2018-09-08T08:21:12.347Z,101956.99
2018-09-08T08:23:41.059Z,101947.94
2018-09-08T08:26:10.160Z,101953.66
2018-09-08T08:28:38.708Z,101945.97
2018-09-08T08:31:07.343Z,101951.38
2018-09-08T08:33:35.880Z,101948.34
2018-09-08T08:36:04.472Z,101939.97
2018-09-08T08:38:32.948Z,101946.22
2018-09-08T08:41:01.417Z,101946.30
2018-09-08T08:43:29.999Z,101936.05
2018-09-08T08:45:58.486Z,101936.36
2018-09-08T08:48:27.028Z,101946.98
2018-09-08T08:51:06.787Z,101935.30
2018-09-08T08:53:46.703Z,101938.12
2018-09-08T08:56:15.340Z,101933.60
2018-09-08T08:58:43.856Z,101929.61
2018-09-08T09:01:12.509Z,101934.03
2018-09-08T09:03:42.097Z,101938.44
2018-09-08T09:06:10.606Z,101942.52
2018-09-08T09:08:39.562Z,101947.12
2018-09-08T09:11:07.694Z,101944.16
2018-09-08T09:13:36.364Z,101942.14
2018-09-08T09:16:04.843Z,101945.78
2018-09-08T09:18:45.006Z,101943.63
2018-09-08T09:21:24.309Z,101934.81
2018-09-08T09:25:06.410Z,101938.42
2018-09-08T09:27:43.012Z,101935.74
2018-09-08T09:30:11.810Z,101939.05
2018-09-08T09:33:06.702Z,101937.92
2018-09-08T09:35:35.297Z,101937.32
2018-09-08T09:38:04.069Z,101934.66
2018-09-08T09:40:32.614Z,101929.96
2018-09-08T09:43:01.174Z,101929.98
2018-09-08T09:45:29.644Z,101929.11
2018-09-08T09:47:58.271Z,101932.16
2018-09-08T09:50:26.801Z,101943.30
2018-09-08T09:52:55.472Z,101938.04
2018-09-08T09:55:23.961Z,101925.70
2018-09-08T09:57:52.432Z,101928.47
2018-09-08T10:00:26.228Z,101935.28
2018-09-08T10:02:59.977Z,101924.60
2018-09-08T10:05:28.465Z,101937.91
2018-09-08T10:07:57.010Z,101945.52
2018-09-08T10:10:27.002Z,101943.83
2018-09-08T10:12:55.626Z,101941.17
2018-09-08T10:15:24.220Z,101933.69
2018-09-08T10:17:52.883Z,101935.05
2018-09-08T10:20:22.710Z,101934.70
2018-09-08T10:22:51.381Z,101939.22
2018-09-08T10:25:27.916Z,101936.67
2018-09-08T10:27:56.370Z,101931.84
2018-09-08T10:30:25.897Z,101925.20
2018-09-08T10:32:54.350Z,101919.44
2018-09-08T10:35:22.837Z,101921.69
2018-09-08T10:37:51.292Z,101917.66
2018-09-08T10:40:19.829Z,101921.64
2018-09-08T10:42:48.362Z,101914.97
2018-09-08T10:45:16.933Z,101913.65
2018-09-08T10:47:46.082Z,101911.44
2018-09-08T10:50:14.658Z,101911.45
2018-09-08T10:52:44.897Z,101913.69
2018-09-08T10:55:13.532Z,101908.83
2018-09-08T10:57:42.018Z,101912.40
2018-09-08T11:00:11.353Z,101919.53
2018-09-08T11:02:40.354Z,101921.31
2018-09-08T11:05:08.525Z,101917.27
2018-09-08T11:07:37.052Z,101911.91
2018-09-08T11:10:06.293Z,101911.50
2018-09-08T11:12:34.936Z,101920.41
2018-09-08T11:21:49.475Z,101911.46
2018-09-08T11:24:18.184Z,101909.63
2018-09-08T11:26:46.781Z,101908.27
2018-09-08T11:29:16.325Z,101906.44
2018-09-08T11:31:45.021Z,101902.42
2018-09-08T11:34:13.495Z,101895.29
2018-09-08T11:36:41.977Z,101895.75
2018-09-08T11:39:10.421Z,101904.23
2018-09-08T11:41:39.359Z,101898.98
2018-09-08T11:44:07.806Z,101892.76
2018-09-08T11:46:36.304Z,101889.16
2018-09-08T11:49:04.810Z,101891.42
2018-09-08T11:51:33.433Z,101896.29
2018-09-08T11:54:01.861Z,101895.29
2018-09-08T11:56:30.337Z,101891.02
2018-09-08T11:58:58.879Z,101893.88
2018-09-08T12:01:27.502Z,101894.91
2018-09-08T12:03:56.096Z,101899.45
2018-09-08T12:06:24.591Z,101893.67
2018-09-08T12:08:53.164Z,101898.13
2018-09-08T12:11:21.673Z,101896.77
2018-09-08T12:13:50.275Z,101896.33
2018-09-08T12:16:18.854Z,101887.86
2018-09-08T12:18:47.446Z,101888.24
2018-09-08T12:21:15.921Z,101887.36
2018-09-08T12:23:44.432Z,101886.53
2018-09-08T12:26:12.994Z,101885.22
2018-09-08T12:28:41.468Z,101878.94
2018-09-08T12:31:10.010Z,101874.96
2018-09-08T12:33:38.629Z,101881.17
2018-09-08T12:36:07.205Z,101890.11
2018-09-08T12:38:35.715Z,101888.30
2018-09-08T12:41:04.244Z,101890.53
2018-09-08T12:43:32.690Z,101887.41
2018-09-08T12:46:01.251Z,101885.89
2018-09-08T12:48:30.822Z,101884.69
2018-09-08T12:50:59.422Z,101883.80
2018-09-08T12:53:28.090Z,101893.67
2018-09-08T12:55:56.575Z,101881.13
2018-09-08T12:58:25.068Z,101888.80
2018-09-08T13:00:53.694Z,101884.97
2018-09-08T13:06:44.524Z,101882.02
2018-09-08T13:09:13.988Z,101888.77
2018-09-08T13:11:42.633Z,101886.05
2018-09-08T13:14:17.023Z,101883.24
2018-09-08T13:16:45.458Z,101889.98
2018-09-08T13:19:13.921Z,101881.49
2018-09-08T13:21:42.673Z,101884.68
2018-09-08T13:24:11.306Z,101889.86
2018-09-08T13:26:39.909Z,101882.97
2018-09-08T13:29:09.881Z,101887.07
2018-09-08T13:31:38.763Z,101894.41
2018-09-08T13:34:07.303Z,101882.66
2018-09-08T13:36:35.852Z,101880.73
2018-09-08T13:39:05.484Z,101881.91
2018-09-08T13:42:00.711Z,101891.34
2018-09-08T13:44:29.265Z,101876.66
2018-09-08T13:46:57.908Z,101869.53
2018-09-08T13:49:26.359Z,101881.16
2018-09-08T13:51:54.902Z,101887.87
2018-09-08T13:54:23.615Z,101886.08
2018-09-08T13:56:52.180Z,101877.09
2018-09-08T13:59:20.802Z,101865.77
2018-09-08T14:01:49.839Z,101886.66
2018-09-08T14:04:18.560Z,101875.98
2018-09-08T14:07:18.714Z,101876.89
2018-09-08T14:10:00.159Z,101882.23
2018-09-08T14:12:28.759Z,101870.25
2018-09-08T14:14:57.215Z,101877.80
2018-09-08T14:17:25.707Z,101878.13
2018-09-08T14:19:54.205Z,101884.11
2018-09-08T14:22:36.732Z,101884.67
2018-09-08T14:25:05.790Z,101874.00
2018-09-08T14:27:34.278Z,101878.00
2018-09-08T14:30:02.969Z,101861.94
2018-09-08T14:32:31.554Z,101852.08
2018-09-08T14:35:00.121Z,101854.72
2018-09-08T14:37:28.595Z,101860.53
2018-09-08T14:39:57.093Z,101853.38
2018-09-08T14:42:25.564Z,101865.88
2018-09-08T14:45:25.310Z,101855.23
2018-09-08T14:47:53.846Z,101850.33
2018-09-08T14:50:22.368Z,101845.03
2018-09-08T14:52:50.950Z,101847.27
2018-09-08T14:55:19.418Z,101849.52
2018-09-08T14:57:47.929Z,101854.87
2018-09-08T15:00:16.509Z,101845.50
2018-09-08T15:02:45.071Z,101851.74
2018-09-08T15:05:13.681Z,101843.25
2018-09-08T15:07:42.143Z,101838.30
2018-09-08T15:10:10.678Z,101840.95
2018-09-08T15:12:39.258Z,101853.89
2018-09-08T15:15:08.004Z,101848.54
2018-09-08T15:17:36.593Z,101856.63
2018-09-08T15:20:26.974Z,101849.52
2018-09-08T15:22:56.495Z,101861.57
2018-09-08T15:25:24.961Z,101857.13
2018-09-08T15:27:53.522Z,101865.16
2018-09-08T15:30:43.447Z,101862.45
2018-09-08T15:33:11.962Z,101848.20
2018-09-08T15:35:45.663Z,101863.80
2018-09-08T15:38:14.245Z,101881.16
2018-09-08T15:41:00.117Z,101885.17
2018-09-08T15:43:28.675Z,101881.16
2018-09-08T15:45:57.211Z,101892.30
2018-09-08T15:48:25.652Z,101888.27
2018-09-08T15:50:54.250Z,101887.81
2018-09-08T15:53:22.724Z,101885.58
2018-09-08T15:55:51.157Z,101872.66
2018-09-08T15:58:19.692Z,101877.55
2018-09-08T16:00:48.249Z,101869.09
2018-09-08T16:03:16.662Z,101878.88
2018-09-08T16:05:45.203Z,101872.20
2018-09-08T16:08:13.723Z,101864.18
2018-09-08T16:10:42.379Z,101867.30
2018-09-08T16:13:10.920Z,101859.72
2018-09-08T16:15:39.565Z,101861.05
2018-09-08T16:18:09.001Z,101865.50
2018-09-08T16:20:37.477Z,101864.60
2018-09-08T16:23:18.111Z,101869.05
2018-09-08T16:25:46.685Z,101867.70
2018-09-08T16:28:15.585Z,101865.91
2018-09-08T16:30:44.148Z,101867.23
2018-09-08T16:33:12.670Z,101867.14
2018-09-08T16:35:41.124Z,101863.58
2018-09-08T16:38:09.697Z,101869.78
2018-09-08T16:40:38.185Z,101868.42
2018-09-08T16:43:06.841Z,101869.28
2018-09-08T16:45:35.307Z,101863.93
2018-09-08T16:48:03.902Z,101866.59
2018-09-08T16:50:46.854Z,101862.12
2018-09-08T16:53:15.296Z,101873.22
2018-09-08T16:55:43.842Z,101865.64
2018-09-08T16:58:12.350Z,101866.53
2018-09-08T17:00:40.901Z,101861.61
2018-09-08T17:03:09.419Z,101862.04
2018-09-08T17:05:37.943Z,101866.47
2018-09-08T17:08:07.297Z,101858.89
2018-09-08T17:10:35.845Z,101856.64
2018-09-08T17:13:04.350Z,101861.05
2018-09-08T17:15:32.900Z,101856.56
2018-09-08T17:18:01.484Z,101853.87
2018-09-08T17:20:29.968Z,101861.84
2018-09-08T17:22:58.611Z,101866.27
2018-09-08T17:25:27.281Z,101874.25
2018-09-08T17:27:55.724Z,101868.86
2018-09-08T17:30:24.324Z,101875.04
2018-09-08T17:32:52.906Z,101881.23
2018-09-08T17:35:21.476Z,101876.77
2018-09-08T17:37:49.954Z,101879.41
2018-09-08T17:40:18.575Z,101876.25
2018-09-08T17:42:47.118Z,101876.21
2018-09-08T17:45:15.667Z,101868.63
2018-09-08T17:47:44.220Z,101868.61
2018-09-08T17:50:12.820Z,101866.80
2018-09-08T17:52:41.363Z,101868.05
2018-09-08T17:55:09.803Z,101862.24
2018-09-08T17:57:38.284Z,101867.52
2018-09-08T18:00:07.390Z,101866.59
2018-09-08T18:02:35.962Z,101870.13
2018-09-08T18:05:04.625Z,101876.75
2018-09-08T18:07:33.159Z,101877.16
2018-09-08T18:10:17.924Z,101867.80
2018-09-08T18:12:46.501Z,101870.87
2018-09-08T18:15:16.029Z,101872.61
2018-09-08T18:17:44.693Z,101878.31
2018-09-08T18:20:13.323Z,101876.01
2018-09-08T18:22:41.986Z,101877.27
2018-09-08T18:25:24.883Z,101881.23
2018-09-08T18:27:53.480Z,101882.47
2018-09-08T18:30:21.955Z,101881.55
2018-09-08T18:32:50.630Z,101887.32
2018-09-08T18:35:19.083Z,101884.66
2018-09-08T18:37:47.581Z,101886.39
2018-09-08T18:40:16.184Z,101889.85
2018-09-08T18:42:45.001Z,101892.97
2018-09-08T18:45:13.702Z,101898.25
2018-09-08T18:47:42.365Z,101895.12
2018-09-08T18:50:11.012Z,101892.86
2018-09-08T18:52:39.582Z,101894.56
2018-09-08T18:55:08.077Z,101898.44
2018-09-08T18:57:36.701Z,101903.67
2018-09-08T19:00:05.263Z,101904.89
2018-09-08T19:02:33.716Z,101902.61
2018-09-08T19:05:03.214Z,101914.07
2018-09-08T19:07:31.703Z,101911.78
2018-09-08T19:10:06.926Z,101909.48
2018-09-08T19:12:36.444Z,101908.08
2018-09-08T19:15:10.211Z,101912.45
2018-09-08T19:17:39.006Z,101908.83
2018-09-08T19:20:12.799Z,101910.50
2018-09-08T19:22:41.433Z,101912.11
2018-09-08T19:25:09.991Z,101913.34
2018-09-08T19:27:39.111Z,101916.87
2018-09-08T19:30:07.748Z,101912.83
2018-09-08T19:32:36.396Z,101910.51
2018-09-08T19:35:10.249Z,101916.66
2018-09-08T19:37:54.370Z,101912.17
2018-09-08T19:40:28.403Z,101917.43
2018-09-08T19:42:57.129Z,101921.80
2018-09-08T19:45:25.717Z,101925.13
2018-09-08T19:47:59.416Z,101912.95
2018-09-08T19:50:27.977Z,101921.67
2018-09-08T19:53:02.209Z,101923.29
2018-09-08T19:55:31.317Z,101915.73
2018-09-08T19:58:05.156Z,101916.16
2018-09-08T20:00:33.714Z,101915.73
2018-09-08T20:03:02.310Z,101918.76
2018-09-08T20:05:30.992Z,101917.38
2018-09-08T20:07:59.572Z,101922.06
2018-09-08T20:10:28.236Z,101920.28
2018-09-08T20:12:56.813Z,101924.66
2018-09-08T20:18:48.376Z,101934.22
2018-09-08T20:24:42.447Z,101937.55
2018-09-08T20:27:10.948Z,101937.95
2018-09-08T20:29:39.399Z,101942.79
2018-09-08T20:32:07.882Z,101941.03
2018-09-08T20:34:36.415Z,101935.70
2018-09-08T20:37:05.110Z,101933.77
2018-09-08T20:39:33.633Z,101930.62
2018-09-08T20:42:02.344Z,101937.69
2018-09-08T20:44:30.946Z,101933.71
2018-09-08T20:46:59.702Z,101934.97
2018-09-08T20:49:28.285Z,101930.92
2018-09-08T20:51:58.121Z,101934.80
2018-09-08T20:54:30.375Z,101927.21
2018-09-08T20:56:59.506Z,101920.52
2018-09-08T20:59:27.987Z,101925.42
2018-09-08T21:01:56.441Z,101923.20
2018-09-08T21:04:25.632Z,101923.60
2018-09-08T21:06:54.162Z,101924.03
2018-09-08T21:09:22.996Z,101921.34
2018-09-08T21:11:51.536Z,101916.08
2018-09-08T21:14:20.007Z,101916.58
2018-09-08T21:16:48.479Z,101916.14
2018-09-08T21:19:51.439Z,101915.31
2018-09-08T21:22:19.929Z,101914.02
2018-09-08T21:24:55.488Z,101912.76
2018-09-08T21:27:23.906Z,101912.76
2018-09-08T21:29:52.422Z,101907.92
2018-09-08T21:32:21.036Z,101914.48
2018-09-08T21:34:49.714Z,101913.12
2018-09-08T21:37:18.185Z,101909.84
2018-09-08T21:39:46.791Z,101915.02
2018-09-08T21:42:15.357Z,101912.69
2018-09-08T21:44:43.951Z,101911.30
2018-09-08T21:47:25.122Z,101914.84
2018-09-08T21:49:53.709Z,101909.11
2018-09-08T21:52:22.458Z,101902.05
2018-09-08T21:54:51.301Z,101900.30
2018-09-08T21:57:19.947Z,101904.64
2018-09-08T21:59:48.463Z,101907.55
2018-09-08T22:02:17.327Z,101907.97
2018-09-08T22:04:45.937Z,101911.52
2018-09-08T22:07:15.758Z,101907.05
2018-09-08T22:09:44.417Z,101900.84
2018-09-08T22:12:13.781Z,101901.71
2018-09-08T22:14:42.602Z,101899.56
2018-09-08T22:17:11.264Z,101907.05
2018-09-08T22:19:39.827Z,101892.94
2018-09-08T22:22:08.422Z,101893.93
2018-09-08T22:24:36.885Z,101895.36
2018-09-08T22:27:06.290Z,101886.98
2018-09-08T22:29:34.801Z,101890.48
2018-09-08T22:32:04.417Z,101892.20
2018-09-08T22:34:33.035Z,101891.67
2018-09-08T22:37:07.755Z,101902.28
2018-09-08T22:39:36.289Z,101892.04
2018-09-08T22:42:04.769Z,101893.72
2018-09-08T22:44:33.874Z,101893.16
2018-09-08T22:47:02.696Z,101894.45
2018-09-08T22:49:31.215Z,101897.48
2018-09-08T22:51:59.762Z,101895.23
2018-09-08T22:54:28.228Z,101896.56
2018-09-08T22:56:56.764Z,101895.16
2018-09-08T22:59:25.228Z,101894.55
2018-09-08T23:01:53.801Z,101895.80
2018-09-08T23:04:22.285Z,101905.97
2018-09-08T23:07:25.827Z,101902.86
2018-09-08T23:09:54.372Z,101905.19
2018-09-08T23:12:22.918Z,101904.00
2018-09-08T23:14:51.441Z,101906.30
2018-09-08T23:17:19.900Z,101904.61
2018-09-08T23:19:48.424Z,101896.27
2018-09-08T23:22:16.884Z,101906.44
2018-09-08T23:24:46.084Z,101900.31
2018-09-08T23:27:14.657Z,101905.62
2018-09-08T23:29:43.137Z,101906.44
2018-09-08T23:32:11.617Z,101906.88
2018-09-08T23:34:40.095Z,101897.70
2018-09-08T23:37:08.752Z,101894.30
2018-09-08T23:39:37.299Z,101887.30
2018-09-08T23:42:05.743Z,101879.42
2018-09-08T23:44:34.800Z,101888.37
2018-09-08T23:47:03.965Z,101892.31
2018-09-08T23:49:32.535Z,101893.20
2018-09-08T23:52:01.054Z,101897.71
2018-09-08T23:54:29.602Z,101890.72
2018-09-08T23:56:58.485Z,101897.48
2018-09-08T23:59:27.181Z,101910.77
